createdAt,value
2017-06-25T00:00:17.700Z,21.53
2017-06-25T00:00:58.176Z,21.67
2017-06-25T00:01:38.669Z,21.68
2017-06-25T00:02:19.158Z,21.65
2017-06-25T00:02:59.660Z,21.53
2017-06-25T00:03:40.146Z,21.46
2017-06-25T00:04:20.639Z,21.46
2017-06-25T00:05:01.129Z,21.53
2017-06-25T00:05:41.626Z,21.47
2017-06-25T00:07:54.352Z,21.42
2017-06-25T00:08:34.833Z,21.49
2017-06-25T00:09:15.329Z,21.42
2017-06-25T00:09:55.827Z,21.52
2017-06-25T00:10:36.307Z,21.58
2017-06-25T00:11:16.801Z,21.65
2017-06-25T00:11:57.291Z,21.72
2017-06-25T00:12:37.777Z,21.79
2017-06-25T00:13:18.270Z,21.83
2017-06-25T00:13:58.757Z,21.83
2017-06-25T00:14:39.251Z,21.9
2017-06-25T00:15:19.741Z,21.84
2017-06-25T00:16:00.236Z,21.9
2017-06-25T00:16:40.725Z,21.86
2017-06-25T00:17:21.228Z,21.98
2017-06-25T00:18:01.716Z,21.99
2017-06-25T00:18:42.217Z,21.98
2017-06-25T00:19:22.719Z,22.06
2017-06-25T00:20:03.220Z,22.1
2017-06-25T00:20:43.716Z,22.07
2017-06-25T00:21:24.213Z,22.12
2017-06-25T00:22:04.703Z,22.15
2017-06-25T00:22:45.196Z,22.2
2017-06-25T00:23:25.703Z,22.2
2017-06-25T00:24:06.172Z,22.22
2017-06-25T00:24:46.668Z,22.3
2017-06-25T00:25:27.166Z,22.28
2017-06-25T00:26:07.656Z,22.35
2017-06-25T00:26:48.150Z,22.25
2017-06-25T00:27:28.627Z,22.35
2017-06-25T00:28:09.129Z,22.39
2017-06-25T00:28:49.625Z,22.33
2017-06-25T00:29:30.120Z,22.31
2017-06-25T00:30:10.616Z,22.39
2017-06-25T00:30:51.137Z,22.36
2017-06-25T00:31:31.625Z,22.33
2017-06-25T00:32:12.121Z,22.35
2017-06-25T00:32:52.617Z,22.3
2017-06-25T00:33:33.108Z,22.35
2017-06-25T00:34:13.600Z,22.28
2017-06-25T00:34:54.097Z,22.25
2017-06-25T00:35:34.584Z,22.24
2017-06-25T00:36:15.089Z,22.25
2017-06-25T00:36:55.571Z,22.2
2017-06-25T00:37:36.055Z,22.15
2017-06-25T00:38:16.554Z,22.14
2017-06-25T00:38:57.054Z,22.18
2017-06-25T00:39:37.542Z,22.22
2017-06-25T00:40:18.038Z,22.2
2017-06-25T00:40:58.539Z,22.17
2017-06-25T00:41:39.024Z,22.17
2017-06-25T00:42:19.519Z,22.2
2017-06-25T00:43:00.008Z,22.27
2017-06-25T00:43:40.498Z,22.25
2017-06-25T00:44:21.000Z,22.33
2017-06-25T00:45:01.481Z,22.36
2017-06-25T00:45:41.975Z,22.36
2017-06-25T00:46:22.441Z,22.33
2017-06-25T00:47:02.920Z,22.37
2017-06-25T00:47:43.409Z,22.46
2017-06-25T00:48:23.905Z,22.36
2017-06-25T00:49:04.395Z,22.36
2017-06-25T00:49:44.887Z,22.35
2017-06-25T00:50:25.375Z,22.39
2017-06-25T00:51:05.872Z,22.47
2017-06-25T00:51:46.370Z,22.39
2017-06-25T00:52:26.858Z,22.36
2017-06-25T00:53:07.352Z,22.36
2017-06-25T00:53:47.834Z,22.39
2017-06-25T00:54:28.329Z,22.35
2017-06-25T00:55:08.827Z,22.25
2017-06-25T00:55:49.322Z,22.25
2017-06-25T00:56:29.807Z,22.22
2017-06-25T00:57:10.304Z,22.18
2017-06-25T00:57:50.793Z,22.14
2017-06-25T00:58:31.286Z,22.1
2017-06-25T00:59:11.781Z,22.12
2017-06-25T00:59:52.281Z,22.07
2017-06-25T01:00:32.769Z,22.1
2017-06-25T01:01:13.251Z,21.98
2017-06-25T01:01:53.748Z,21.94
2017-06-25T01:02:34.256Z,21.91
2017-06-25T01:03:14.727Z,22.03
2017-06-25T01:03:55.232Z,22.02
2017-06-25T01:04:35.720Z,21.98
2017-06-25T01:05:16.213Z,21.96
2017-06-25T01:05:56.711Z,21.92
2017-06-25T01:06:37.197Z,21.96
2017-06-25T01:07:17.685Z,21.94
2017-06-25T01:07:58.179Z,21.92
2017-06-25T01:08:38.673Z,21.9
2017-06-25T01:09:19.165Z,21.96
2017-06-25T01:09:59.657Z,21.9
2017-06-25T01:10:40.141Z,21.96
2017-06-25T01:11:20.654Z,21.99
2017-06-25T01:12:01.163Z,21.9
2017-06-25T01:12:41.655Z,21.92
2017-06-25T01:13:22.160Z,21.96
2017-06-25T01:14:02.646Z,21.98
2017-06-25T01:14:43.137Z,21.98
2017-06-25T01:15:23.632Z,22.02
2017-06-25T01:16:04.133Z,21.92
2017-06-25T01:16:44.627Z,22
2017-06-25T01:17:25.140Z,22.02
2017-06-25T01:18:05.648Z,21.99
2017-06-25T01:18:46.126Z,21.96
2017-06-25T01:19:26.662Z,22.03
2017-06-25T01:20:07.094Z,21.91
2017-06-25T01:20:47.601Z,21.92
2017-06-25T01:21:28.091Z,21.94
2017-06-25T01:22:08.594Z,21.91
2017-06-25T01:22:49.087Z,21.88
2017-06-25T01:23:29.591Z,21.86
2017-06-25T01:24:10.087Z,21.88
2017-06-25T01:24:50.586Z,21.9
2017-06-25T01:25:31.081Z,21.92
2017-06-25T01:26:11.576Z,21.82
2017-06-25T01:26:52.068Z,21.83
2017-06-25T01:27:32.566Z,21.84
2017-06-25T01:28:13.057Z,21.8
2017-06-25T01:28:53.549Z,21.68
2017-06-25T01:29:34.050Z,21.65
2017-06-25T01:30:14.545Z,21.64
2017-06-25T01:30:55.036Z,21.65
2017-06-25T01:31:35.600Z,21.65
2017-06-25T01:32:16.093Z,21.58
2017-06-25T01:32:56.594Z,21.68
2017-06-25T01:33:37.095Z,21.61
2017-06-25T01:34:17.588Z,21.59
2017-06-25T01:34:58.072Z,21.59
2017-06-25T01:35:38.571Z,21.64
2017-06-25T01:36:19.065Z,21.59
2017-06-25T01:36:59.557Z,21.65
2017-06-25T01:37:40.069Z,21.64
2017-06-25T01:38:20.556Z,21.58
2017-06-25T01:39:01.047Z,21.64
2017-06-25T01:39:41.538Z,21.59
2017-06-25T01:40:22.048Z,21.61
2017-06-25T01:41:02.547Z,21.64
2017-06-25T01:41:43.047Z,21.67
2017-06-25T01:42:23.527Z,21.62
2017-06-25T01:43:04.024Z,21.64
2017-06-25T01:43:44.520Z,21.65
2017-06-25T01:44:25.017Z,21.61
2017-06-25T01:45:05.496Z,21.61
2017-06-25T01:45:46.028Z,21.67
2017-06-25T01:46:26.477Z,21.64
2017-06-25T01:47:06.969Z,21.64
2017-06-25T01:47:47.468Z,21.68
2017-06-25T01:48:27.991Z,21.61
2017-06-25T01:49:08.476Z,21.61
2017-06-25T01:49:48.973Z,21.64
2017-06-25T01:50:29.456Z,21.58
2017-06-25T01:51:09.950Z,21.62
2017-06-25T01:51:50.455Z,21.54
2017-06-25T01:52:30.947Z,21.49
2017-06-25T01:53:11.450Z,21.53
2017-06-25T01:53:51.930Z,21.44
2017-06-25T01:54:32.423Z,21.52
2017-06-25T01:55:12.920Z,21.56
2017-06-25T01:55:53.407Z,21.59
2017-06-25T01:56:33.905Z,21.62
2017-06-25T01:57:14.401Z,21.61
2017-06-25T01:57:55.617Z,21.62
2017-06-25T01:58:35.376Z,21.58
2017-06-25T01:59:15.879Z,21.64
2017-06-25T01:59:56.349Z,21.67
2017-06-25T02:00:36.848Z,21.56
2017-06-25T02:01:17.346Z,21.67
2017-06-25T02:01:57.837Z,21.64
2017-06-25T02:02:38.334Z,21.56
2017-06-25T02:03:18.839Z,21.56
2017-06-25T02:03:59.319Z,21.64
2017-06-25T02:04:39.806Z,21.61
2017-06-25T02:05:20.307Z,21.71
2017-06-25T02:06:00.792Z,21.61
2017-06-25T02:06:41.286Z,21.61
2017-06-25T02:07:21.787Z,21.59
2017-06-25T02:08:02.269Z,21.49
2017-06-25T02:08:42.762Z,21.47
2017-06-25T02:09:23.256Z,21.4
2017-06-25T02:10:03.755Z,21.43
2017-06-25T02:10:44.254Z,21.49
2017-06-25T02:11:24.764Z,21.53
2017-06-25T02:12:05.256Z,21.43
2017-06-25T02:12:45.756Z,21.32
2017-06-25T02:13:26.256Z,21.43
2017-06-25T02:14:06.751Z,21.37
2017-06-25T02:14:47.258Z,21.49
2017-06-25T02:15:27.734Z,21.44
2017-06-25T02:16:08.232Z,21.29
2017-06-25T02:16:48.739Z,21.35
2017-06-25T02:17:29.231Z,21.31
2017-06-25T02:18:09.738Z,21.38
2017-06-25T02:18:50.220Z,21.47
2017-06-25T02:19:30.708Z,21.38
2017-06-25T02:20:11.200Z,21.44
2017-06-25T02:20:51.693Z,21.38
2017-06-25T02:21:32.186Z,21.29
2017-06-25T02:22:12.684Z,21.47
2017-06-25T02:22:53.170Z,21.46
2017-06-25T02:23:33.671Z,21.46
2017-06-25T02:24:14.156Z,21.44
2017-06-25T02:24:54.647Z,21.44
2017-06-25T02:25:35.139Z,21.5
2017-06-25T02:26:15.633Z,21.46
2017-06-25T02:26:56.134Z,21.5
2017-06-25T02:27:36.628Z,21.4
2017-06-25T02:28:17.137Z,21.49
2017-06-25T02:28:57.636Z,21.5
2017-06-25T02:29:38.119Z,21.46
2017-06-25T02:30:18.624Z,21.46
2017-06-25T02:30:59.113Z,21.47
2017-06-25T02:31:39.607Z,21.49
2017-06-25T02:32:20.095Z,21.37
2017-06-25T02:33:00.589Z,21.42
2017-06-25T02:33:41.084Z,21.4
2017-06-25T02:34:21.584Z,21.4
2017-06-25T02:35:02.076Z,21.38
2017-06-25T02:35:42.565Z,21.43
2017-06-25T02:36:23.060Z,21.37
2017-06-25T02:37:03.542Z,21.43
2017-06-25T02:37:44.024Z,21.37
2017-06-25T02:38:24.508Z,21.29
2017-06-25T02:39:05.004Z,21.29
2017-06-25T02:39:45.496Z,21.42
2017-06-25T02:40:26.002Z,21.47
2017-06-25T02:41:06.498Z,21.38
2017-06-25T02:41:46.988Z,21.4
2017-06-25T02:42:27.482Z,21.44
2017-06-25T02:43:07.972Z,21.32
2017-06-25T02:43:48.471Z,21.32
2017-06-25T02:44:28.950Z,21.49
2017-06-25T02:45:09.446Z,21.4
2017-06-25T02:45:49.947Z,21.44
2017-06-25T02:46:30.431Z,21.37
2017-06-25T02:47:10.930Z,21.31
2017-06-25T02:47:51.430Z,21.37
2017-06-25T02:48:31.915Z,21.43
2017-06-25T02:49:12.405Z,21.4
2017-06-25T02:49:52.899Z,21.5
2017-06-25T02:50:33.396Z,21.47
2017-06-25T02:51:13.876Z,21.44
2017-06-25T02:51:54.383Z,21.49
2017-06-25T02:52:34.866Z,21.38
2017-06-25T02:53:15.341Z,21.5
2017-06-25T02:53:55.830Z,21.49
2017-06-25T02:54:36.345Z,21.54
2017-06-25T02:55:16.817Z,21.44
2017-06-25T02:55:57.316Z,21.5
2017-06-25T02:56:37.822Z,21.44
2017-06-25T02:57:18.309Z,21.44
2017-06-25T02:57:58.811Z,21.42
2017-06-25T02:58:39.299Z,21.47
2017-06-25T02:59:19.795Z,21.47
2017-06-25T03:00:00.297Z,21.42
2017-06-25T03:00:40.780Z,21.44
2017-06-25T03:01:21.271Z,21.42
2017-06-25T03:02:01.777Z,21.38
2017-06-25T03:02:42.252Z,21.34
2017-06-25T03:03:22.743Z,21.25
2017-06-25T03:04:03.241Z,21.29
2017-06-25T03:04:43.724Z,21.28
2017-06-25T03:05:24.223Z,21.22
2017-06-25T03:06:04.706Z,21.25
2017-06-25T03:06:45.217Z,21.21
2017-06-25T03:07:25.674Z,21.24
2017-06-25T03:08:06.174Z,21.22
2017-06-25T03:08:46.682Z,21.25
2017-06-25T03:09:27.224Z,21.19
2017-06-25T03:10:07.681Z,21.17
2017-06-25T03:10:48.154Z,21.17
2017-06-25T03:11:28.654Z,21.07
2017-06-25T03:12:09.155Z,21.06
2017-06-25T03:12:49.636Z,21.12
2017-06-25T03:13:30.134Z,21.07
2017-06-25T03:14:10.625Z,21.04
2017-06-25T03:14:51.115Z,21.12
2017-06-25T03:15:31.612Z,21.07
2017-06-25T03:16:12.091Z,21.04
2017-06-25T03:16:52.591Z,21.1
2017-06-25T03:17:33.086Z,21.01
2017-06-25T03:18:13.583Z,20.98
2017-06-25T03:18:54.071Z,20.99
2017-06-25T03:19:34.560Z,21.06
2017-06-25T03:20:15.053Z,21.04
2017-06-25T03:20:55.549Z,21.03
2017-06-25T03:21:36.044Z,20.98
2017-06-25T03:22:16.569Z,21.01
2017-06-25T03:22:57.018Z,21.07
2017-06-25T03:23:37.517Z,21.03
2017-06-25T03:24:18.007Z,21.03
2017-06-25T03:24:58.505Z,20.88
2017-06-25T03:25:38.988Z,20.99
2017-06-25T03:26:19.493Z,21.04
2017-06-25T03:27:56.826Z,20.95
2017-06-25T03:28:37.336Z,21.09
2017-06-25T03:29:17.830Z,21.01
2017-06-25T03:29:58.302Z,20.95
2017-06-25T03:30:38.802Z,20.98
2017-06-25T03:31:19.287Z,20.98
2017-06-25T03:31:59.794Z,20.95
2017-06-25T03:32:40.279Z,20.95
2017-06-25T03:33:20.767Z,20.94
2017-06-25T03:34:01.257Z,20.94
2017-06-25T03:34:41.754Z,20.92
2017-06-25T03:35:22.245Z,20.92
2017-06-25T03:36:02.731Z,20.92
2017-06-25T03:36:43.227Z,20.85
2017-06-25T03:37:23.714Z,20.89
2017-06-25T03:38:04.205Z,20.87
2017-06-25T03:38:44.699Z,20.89
2017-06-25T03:39:25.173Z,20.79
2017-06-25T03:40:05.661Z,20.85
2017-06-25T03:40:46.149Z,20.79
2017-06-25T03:41:26.643Z,20.82
2017-06-25T03:42:07.128Z,20.79
2017-06-25T03:42:47.622Z,20.76
2017-06-25T03:43:28.112Z,20.85
2017-06-25T03:44:08.605Z,20.69
2017-06-25T03:44:49.097Z,20.72
2017-06-25T03:45:29.585Z,20.69
2017-06-25T03:46:10.085Z,20.8
2017-06-25T03:46:50.592Z,20.74
2017-06-25T03:47:31.059Z,20.8
2017-06-25T03:48:11.559Z,20.67
2017-06-25T03:48:52.047Z,20.69
2017-06-25T03:49:32.544Z,20.73
2017-06-25T03:50:13.035Z,20.67
2017-06-25T03:50:53.527Z,20.72
2017-06-25T03:51:34.022Z,20.7
2017-06-25T03:52:14.517Z,20.69
2017-06-25T03:52:54.991Z,20.66
2017-06-25T03:53:35.475Z,20.84
2017-06-25T03:54:15.974Z,20.82
2017-06-25T03:54:56.446Z,20.76
2017-06-25T03:55:36.941Z,20.79
2017-06-25T03:56:17.436Z,20.8
2017-06-25T03:56:57.931Z,20.88
2017-06-25T03:57:38.415Z,20.91
2017-06-25T03:58:18.907Z,20.91
2017-06-25T03:58:59.406Z,20.8
2017-06-25T03:59:39.895Z,20.82
2017-06-25T04:00:20.387Z,20.72
2017-06-25T04:01:00.881Z,20.77
2017-06-25T04:01:41.366Z,20.84
2017-06-25T04:02:21.856Z,20.72
2017-06-25T04:03:02.344Z,20.7
2017-06-25T04:03:43.401Z,20.8
2017-06-25T04:04:23.896Z,20.82
2017-06-25T04:05:04.400Z,20.79
2017-06-25T04:05:44.889Z,20.67
2017-06-25T04:06:25.388Z,20.72
2017-06-25T04:07:05.883Z,20.69
2017-06-25T04:07:46.380Z,20.67
2017-06-25T04:08:26.873Z,20.82
2017-06-25T04:09:07.363Z,20.79
2017-06-25T04:09:47.858Z,20.82
2017-06-25T04:10:28.351Z,20.74
2017-06-25T04:11:08.846Z,20.82
2017-06-25T04:11:49.334Z,20.79
2017-06-25T04:12:29.827Z,20.87
2017-06-25T04:13:10.321Z,20.79
2017-06-25T04:13:50.813Z,20.82
2017-06-25T04:14:31.307Z,20.76
2017-06-25T04:15:11.797Z,20.79
2017-06-25T04:15:52.282Z,20.8
2017-06-25T04:16:32.779Z,20.87
2017-06-25T04:17:13.273Z,20.84
2017-06-25T04:17:53.767Z,20.91
2017-06-25T04:18:34.265Z,20.85
2017-06-25T04:19:14.732Z,20.92
2017-06-25T04:19:55.231Z,20.88
2017-06-25T04:20:35.731Z,20.91
2017-06-25T04:21:16.231Z,20.99
2017-06-25T04:21:56.722Z,21.01
2017-06-25T04:22:37.212Z,21.03
2017-06-25T04:23:17.708Z,20.99
2017-06-25T04:23:58.207Z,21.04
2017-06-25T04:24:38.691Z,21.03
2017-06-25T04:25:19.183Z,21.07
2017-06-25T04:25:59.681Z,21.09
2017-06-25T04:26:40.162Z,21.1
2017-06-25T04:27:20.653Z,21.17
2017-06-25T04:28:01.128Z,21.17
2017-06-25T04:28:41.631Z,21.27
2017-06-25T04:29:22.135Z,21.19
2017-06-25T04:30:02.643Z,21.25
2017-06-25T04:30:43.120Z,21.31
2017-06-25T04:31:23.618Z,21.24
2017-06-25T04:32:04.105Z,21.31
2017-06-25T04:32:44.598Z,21.43
2017-06-25T04:33:25.090Z,21.42
2017-06-25T04:34:05.590Z,21.49
2017-06-25T04:34:46.104Z,21.46
2017-06-25T04:35:26.606Z,21.46
2017-06-25T04:36:07.088Z,21.46
2017-06-25T04:36:47.589Z,21.49
2017-06-25T04:37:28.079Z,21.47
2017-06-25T04:38:08.571Z,21.54
2017-06-25T04:38:49.062Z,21.52
2017-06-25T04:39:29.556Z,21.49
2017-06-25T04:40:10.066Z,21.62
2017-06-25T04:40:50.534Z,21.72
2017-06-25T04:41:31.038Z,21.8
2017-06-25T04:42:11.523Z,21.86
2017-06-25T04:42:52.020Z,21.99
2017-06-25T04:43:32.518Z,22
2017-06-25T04:44:13.017Z,22.05
2017-06-25T04:44:53.502Z,22.14
2017-06-25T04:45:33.987Z,22.18
2017-06-25T04:46:14.481Z,22.22
2017-06-25T04:46:54.975Z,22.21
2017-06-25T04:47:35.464Z,22.17
2017-06-25T04:48:15.954Z,22.17
2017-06-25T04:48:56.449Z,22.15
2017-06-25T04:49:36.943Z,22.1
2017-06-25T04:50:17.435Z,22.21
2017-06-25T04:50:57.930Z,22.14
2017-06-25T04:51:38.427Z,21.99
2017-06-25T04:52:18.909Z,22.07
2017-06-25T04:52:59.403Z,22.15
2017-06-25T04:53:39.885Z,22.02
2017-06-25T04:54:20.388Z,22
2017-06-25T04:55:00.897Z,22.07
2017-06-25T04:55:41.403Z,22.18
2017-06-25T04:56:21.896Z,22.25
2017-06-25T04:57:02.394Z,22.24
2017-06-25T04:57:42.883Z,22.37
2017-06-25T04:58:23.384Z,22.4
2017-06-25T04:59:03.877Z,22.45
2017-06-25T04:59:44.360Z,22.43
2017-06-25T05:00:24.860Z,22.37
2017-06-25T05:01:05.352Z,22.46
2017-06-25T05:01:45.840Z,22.39
2017-06-25T05:02:26.339Z,22.4
2017-06-25T05:03:06.835Z,22.43
2017-06-25T05:03:47.316Z,22.4
2017-06-25T05:04:27.812Z,22.36
2017-06-25T05:05:08.304Z,22.25
2017-06-25T05:05:48.797Z,22.05
2017-06-25T05:06:29.283Z,22.1
2017-06-25T05:07:09.782Z,21.96
2017-06-25T05:07:50.260Z,22.02
2017-06-25T05:08:30.767Z,21.94
2017-06-25T05:09:11.258Z,21.9
2017-06-25T05:09:51.744Z,22.05
2017-06-25T05:10:32.236Z,22.15
2017-06-25T05:11:12.737Z,22.35
2017-06-25T05:11:53.219Z,22.4
2017-06-25T05:12:33.714Z,22.43
2017-06-25T05:13:14.213Z,22.42
2017-06-25T05:13:54.701Z,22.33
2017-06-25T05:14:35.193Z,22.3
2017-06-25T05:15:15.689Z,22.4
2017-06-25T05:15:56.178Z,22.42
2017-06-25T05:16:36.670Z,22.39
2017-06-25T05:17:17.166Z,22.24
2017-06-25T05:17:58.602Z,22.25
2017-06-25T05:18:38.140Z,22.37
2017-06-25T05:19:18.636Z,22.39
2017-06-25T05:19:59.135Z,22.46
2017-06-25T05:20:39.625Z,22.35
2017-06-25T05:21:20.119Z,22.43
2017-06-25T05:22:00.605Z,22.31
2017-06-25T05:22:41.100Z,22.42
2017-06-25T05:23:21.596Z,22.4
2017-06-25T05:24:02.088Z,22.4
2017-06-25T05:24:42.579Z,22.52
2017-06-25T05:25:23.073Z,22.67
2017-06-25T05:26:03.563Z,22.61
2017-06-25T05:26:44.054Z,22.65
2017-06-25T05:27:24.545Z,22.83
2017-06-25T05:28:05.037Z,23
2017-06-25T05:28:45.537Z,23.13
2017-06-25T05:29:26.030Z,23.07
2017-06-25T05:30:06.520Z,23.22
2017-06-25T05:30:47.013Z,23.23
2017-06-25T05:31:27.507Z,23.33
2017-06-25T05:32:07.993Z,23.38
2017-06-25T05:32:48.486Z,23.5
2017-06-25T05:33:28.984Z,23.47
2017-06-25T05:34:09.465Z,23.6
2017-06-25T05:34:49.963Z,23.63
2017-06-25T05:35:30.463Z,23.54
2017-06-25T05:36:10.944Z,23.68
2017-06-25T05:36:51.438Z,23.84
2017-06-25T05:37:31.947Z,24.22
2017-06-25T05:38:12.451Z,24.22
2017-06-25T05:38:52.955Z,24.21
2017-06-25T05:39:33.431Z,24.4
2017-06-25T05:40:13.938Z,24.4
2017-06-25T05:40:54.439Z,24.4
2017-06-25T05:41:34.918Z,24.13
2017-06-25T05:42:15.413Z,23.93
2017-06-25T05:42:55.913Z,23.65
2017-06-25T05:43:36.406Z,23.54
2017-06-25T05:44:16.908Z,23.33
2017-06-25T05:44:57.416Z,23.27
2017-06-25T05:45:37.916Z,23.27
2017-06-25T05:46:18.417Z,23.23
2017-06-25T05:46:58.929Z,23.23
2017-06-25T05:47:39.411Z,23.2
2017-06-25T05:48:19.911Z,23.25
2017-06-25T05:49:00.405Z,23.04
2017-06-25T05:49:40.897Z,22.97
2017-06-25T05:50:21.388Z,23.02
2017-06-25T05:51:01.883Z,22.88
2017-06-25T05:51:42.367Z,22.82
2017-06-25T05:52:22.862Z,22.9
2017-06-25T05:53:03.357Z,22.8
2017-06-25T05:53:43.858Z,22.92
2017-06-25T05:54:24.342Z,22.95
2017-06-25T05:55:04.839Z,23.28
2017-06-25T05:55:45.325Z,23.42
2017-06-25T05:56:25.819Z,23.66
2017-06-25T05:57:06.312Z,23.54
2017-06-25T05:57:46.806Z,23.93
2017-06-25T05:58:27.299Z,24.08
2017-06-25T05:59:07.788Z,24.3
2017-06-25T05:59:48.283Z,24.52
2017-06-25T06:00:28.782Z,24.69
2017-06-25T06:01:09.281Z,24.91
2017-06-25T06:01:49.781Z,24.95
2017-06-25T06:02:30.267Z,25.18
2017-06-25T06:03:10.756Z,25.18
2017-06-25T06:03:51.244Z,25.5
2017-06-25T06:04:31.729Z,25.77
2017-06-25T06:05:12.227Z,25.77
2017-06-25T06:05:52.725Z,25.61
2017-06-25T06:06:33.220Z,25.55
2017-06-25T06:07:13.721Z,25.64
2017-06-25T06:07:54.208Z,25.9
2017-06-25T06:08:34.708Z,26.01
2017-06-25T06:09:15.217Z,26.25
2017-06-25T06:09:55.702Z,26.2
2017-06-25T06:10:36.191Z,26.43
2017-06-25T06:11:16.650Z,25.88
2017-06-25T06:11:57.102Z,26.09
2017-06-25T06:12:37.601Z,26.32
2017-06-25T06:13:18.104Z,26.35
2017-06-25T06:13:58.598Z,26.47
2017-06-25T06:14:39.101Z,26.51
2017-06-25T06:15:19.597Z,26.33
2017-06-25T06:16:00.099Z,26.29
2017-06-25T06:16:40.594Z,26.32
2017-06-25T06:17:21.092Z,26.28
2017-06-25T06:18:01.592Z,26.47
2017-06-25T06:18:42.103Z,26.85
2017-06-25T06:19:22.596Z,26.84
2017-06-25T06:20:03.099Z,26.87
2017-06-25T06:20:43.599Z,27
2017-06-25T06:21:24.100Z,26.82
2017-06-25T06:22:04.600Z,26.81
2017-06-25T06:22:45.096Z,26.43
2017-06-25T06:23:25.590Z,26.66
2017-06-25T06:24:06.085Z,26.92
2017-06-25T06:24:46.585Z,27.14
2017-06-25T06:25:27.085Z,27.13
2017-06-25T06:26:07.583Z,27.31
2017-06-25T06:26:48.077Z,27.28
2017-06-25T06:27:28.564Z,27.04
2017-06-25T06:28:09.068Z,27
2017-06-25T06:28:49.553Z,26.92
2017-06-25T06:29:30.052Z,26.76
2017-06-25T06:30:10.547Z,26.97
2017-06-25T06:30:51.044Z,27.12
2017-06-25T06:31:31.535Z,27.41
2017-06-25T06:32:12.050Z,27.46
2017-06-25T06:32:52.545Z,27.65
2017-06-25T06:33:33.056Z,27.92
2017-06-25T06:34:13.560Z,28.06
2017-06-25T06:34:54.076Z,28.34
2017-06-25T06:35:34.572Z,28.34
2017-06-25T06:36:15.077Z,28.64
2017-06-25T06:36:55.567Z,28.59
2017-06-25T06:37:36.064Z,28.62
2017-06-25T06:38:16.565Z,28.76
2017-06-25T06:38:57.071Z,28.93
2017-06-25T06:39:37.570Z,29.31
2017-06-25T06:40:18.100Z,29.41
2017-06-25T06:40:58.599Z,29.26
2017-06-25T06:41:39.105Z,28.95
2017-06-25T06:42:19.614Z,29.06
2017-06-25T06:43:00.110Z,28.67
2017-06-25T06:43:40.608Z,28.52
2017-06-25T06:44:21.119Z,28.66
2017-06-25T06:45:01.623Z,28.44
2017-06-25T06:45:42.122Z,28.25
2017-06-25T06:46:22.621Z,27.99
2017-06-25T06:47:03.114Z,27.41
2017-06-25T06:47:43.611Z,27.69
2017-06-25T06:48:24.116Z,27.44
2017-06-25T06:49:04.630Z,27.02
2017-06-25T06:49:45.126Z,27.09
2017-06-25T06:50:25.624Z,27.1
2017-06-25T06:51:06.119Z,27.14
2017-06-25T06:51:46.606Z,27.22
2017-06-25T06:52:27.107Z,27.07
2017-06-25T06:53:07.603Z,27.25
2017-06-25T06:53:48.105Z,27.67
2017-06-25T06:54:28.604Z,27.93
2017-06-25T06:55:09.102Z,28.25
2017-06-25T06:55:49.596Z,28.36
2017-06-25T06:56:30.108Z,28.37
2017-06-25T06:57:10.610Z,28.31
2017-06-25T06:57:51.104Z,28.04
2017-06-25T06:58:31.595Z,27.97
2017-06-25T06:59:12.100Z,28
2017-06-25T06:59:52.585Z,28.07
2017-06-25T07:00:33.070Z,27.99
2017-06-25T07:01:13.570Z,27.84
2017-06-25T07:01:54.065Z,27.6
2017-06-25T07:02:34.554Z,27.62
2017-06-25T07:03:15.069Z,27.39
2017-06-25T07:03:55.568Z,27.19
2017-06-25T07:04:36.062Z,27.19
2017-06-25T07:05:16.555Z,27.36
2017-06-25T07:05:57.047Z,27.32
2017-06-25T07:06:37.555Z,27.19
2017-06-25T07:07:18.046Z,27.03
2017-06-25T07:07:58.555Z,27.09
2017-06-25T07:08:39.054Z,27
2017-06-25T07:09:19.553Z,26.97
2017-06-25T07:10:00.062Z,27.22
2017-06-25T07:10:40.557Z,27.19
2017-06-25T07:11:21.057Z,27.14
2017-06-25T07:12:01.550Z,26.89
2017-06-25T07:12:42.050Z,26.91
2017-06-25T07:13:22.554Z,27.14
2017-06-25T07:14:03.057Z,27.03
2017-06-25T07:14:43.580Z,27.25
2017-06-25T07:15:24.083Z,27.21
2017-06-25T07:16:04.596Z,27.22
2017-06-25T07:16:45.095Z,27.22
2017-06-25T07:17:25.588Z,27.41
2017-06-25T07:18:06.067Z,27.28
2017-06-25T07:18:46.561Z,27.18
2017-06-25T07:19:27.059Z,27.04
2017-06-25T07:20:07.559Z,27.25
2017-06-25T07:20:48.059Z,27.44
2017-06-25T07:21:28.571Z,27.49
2017-06-25T07:22:09.062Z,27.99
2017-06-25T07:22:49.561Z,28.46
2017-06-25T07:23:30.055Z,28.17
2017-06-25T07:25:42.790Z,28.73
2017-06-25T07:26:23.292Z,29.06
2017-06-25T07:27:03.762Z,29.05
2017-06-25T07:27:44.265Z,29.11
2017-06-25T07:28:24.761Z,29.49
2017-06-25T07:29:05.259Z,29.33
2017-06-25T07:29:45.757Z,29.18
2017-06-25T07:30:26.261Z,29.28
2017-06-25T07:31:06.760Z,29.68
2017-06-25T07:31:47.261Z,29.73
2017-06-25T07:32:27.749Z,30.37
2017-06-25T07:33:08.241Z,30.7
2017-06-25T07:33:48.738Z,30.8
2017-06-25T07:34:29.266Z,30.64
2017-06-25T07:35:09.758Z,31.14
2017-06-25T07:35:50.254Z,31.47
2017-06-25T07:36:30.753Z,31.09
2017-06-25T07:37:11.228Z,30.83
2017-06-25T07:39:23.981Z,30.7
2017-06-25T07:40:04.472Z,30.62
2017-06-25T07:40:44.950Z,31.23
2017-06-25T07:41:25.453Z,31.09
2017-06-25T07:42:05.964Z,30.89
2017-06-25T07:42:46.437Z,30.82
2017-06-25T07:43:26.927Z,31.04
2017-06-25T07:44:07.421Z,30.11
2017-06-25T07:44:47.924Z,30.69
2017-06-25T07:45:28.405Z,30.73
2017-06-25T07:46:08.897Z,31.04
2017-06-25T07:46:49.382Z,31.19
2017-06-25T07:47:29.884Z,31.09
2017-06-25T07:48:10.377Z,30.76
2017-06-25T07:48:50.874Z,31.21
2017-06-25T07:49:31.373Z,31.46
2017-06-25T07:50:11.884Z,32.1
2017-06-25T07:50:52.379Z,32.63
2017-06-25T07:51:32.873Z,31.85
2017-06-25T07:52:13.361Z,31.8
2017-06-25T07:52:53.855Z,31.61
2017-06-25T07:53:34.349Z,31.38
2017-06-25T07:54:14.842Z,31.58
2017-06-25T07:54:55.340Z,31.65
2017-06-25T07:55:35.833Z,31.31
2017-06-25T07:56:16.342Z,30.97
2017-06-25T07:56:56.842Z,30.79
2017-06-25T07:57:37.366Z,30.53
2017-06-25T07:58:17.830Z,30.84
2017-06-25T07:58:58.330Z,30.94
2017-06-25T07:59:38.823Z,30.97
2017-06-25T08:00:19.323Z,30.46
2017-06-25T08:00:59.831Z,30.72
2017-06-25T08:01:40.327Z,30.83
2017-06-25T08:02:20.821Z,30.91
2017-06-25T08:03:01.322Z,30.76
2017-06-25T08:03:41.822Z,31.54
2017-06-25T08:04:22.325Z,31.47
2017-06-25T08:05:02.821Z,32.03
2017-06-25T08:05:43.329Z,32.28
2017-06-25T08:06:23.815Z,32.07
2017-06-25T08:07:04.348Z,32.06
2017-06-25T08:07:44.820Z,32.1
2017-06-25T08:08:25.312Z,32.29
2017-06-25T08:09:05.843Z,32.11
2017-06-25T08:09:46.876Z,31.76
2017-06-25T08:10:27.377Z,31.92
2017-06-25T08:11:07.882Z,31.72
2017-06-25T08:11:48.378Z,32.04
2017-06-25T08:12:28.883Z,31.89
2017-06-25T08:13:09.375Z,32.48
2017-06-25T08:13:49.887Z,32.15
2017-06-25T08:14:30.380Z,32.23
2017-06-25T08:15:10.880Z,32.97
2017-06-25T08:15:51.380Z,33.14
2017-06-25T08:16:31.882Z,32.52
2017-06-25T08:17:12.394Z,31.31
2017-06-25T08:17:52.893Z,31.44
2017-06-25T08:18:33.391Z,30.84
2017-06-25T08:19:13.887Z,30.34
2017-06-25T08:19:54.381Z,30.72
2017-06-25T08:20:34.887Z,31.09
2017-06-25T08:21:15.405Z,31.48
2017-06-25T08:21:55.903Z,31.81
2017-06-25T08:22:36.408Z,31.61
2017-06-25T08:23:16.917Z,31.46
2017-06-25T08:23:57.382Z,31.31
2017-06-25T08:24:37.887Z,30.95
2017-06-25T08:25:18.380Z,31.19
2017-06-25T08:25:58.869Z,30.84
2017-06-25T08:26:39.363Z,31.25
2017-06-25T08:27:19.866Z,31.07
2017-06-25T08:28:00.364Z,30.88
2017-06-25T08:28:40.870Z,31.04
2017-06-25T08:29:21.366Z,31.28
2017-06-25T08:30:02.558Z,31.63
2017-06-25T08:30:43.062Z,31.69
2017-06-25T08:31:23.558Z,32
2017-06-25T08:32:04.055Z,32.4
2017-06-25T08:32:44.530Z,32.1
2017-06-25T08:33:25.034Z,32.06
2017-06-25T08:34:05.531Z,31.81
2017-06-25T08:34:46.032Z,31.23
2017-06-25T08:35:26.529Z,30.73
2017-06-25T08:36:07.035Z,30.55
2017-06-25T08:36:47.530Z,30.11
2017-06-25T08:37:28.026Z,30.13
2017-06-25T08:38:08.529Z,29.49
2017-06-25T08:38:49.022Z,29.48
2017-06-25T08:39:29.531Z,29.97
2017-06-25T08:40:10.031Z,30.24
2017-06-25T08:40:50.525Z,31.1
2017-06-25T08:41:31.020Z,31.62
2017-06-25T08:42:11.514Z,32.04
2017-06-25T08:42:52.004Z,32.47
2017-06-25T08:43:32.487Z,32.67
2017-06-25T08:44:12.981Z,32.97
2017-06-25T08:44:53.480Z,32.52
2017-06-25T08:45:33.966Z,32.78
2017-06-25T08:46:14.494Z,33.01
2017-06-25T08:46:54.986Z,33.65
2017-06-25T08:47:35.483Z,32.62
2017-06-25T08:48:15.931Z,32.69
2017-06-25T08:48:56.389Z,32.69